Time;durP1;ratioP1;P1;durP2;ratioP2;P2;SDS_P1;SDS_P2;PMS_P1;PMS_P2;Temp;Humidity;BMP_temperature;BMP_pressure;BME280_temperature;BME280_humidity;BME280_pressure;Samples;Min_cycle;Max_cycle;Signal;HPM_P1;HPM_P2
2022/12/06 00:00:09;;;;;;;4.50;2.80;;;;;;;7.96;77.59;100899.03;5125503;27;20232;-62
2022/12/06 00:02:36;;;;;;;5.27;3.17;;;;;;;7.91;77.99;100896.78;5125239;27;20224;-63
2022/12/06 00:05:05;;;;;;;6.27;3.43;;;;;;;7.89;78.47;100899.53;5119489;27;20662;-63
2022/12/06 00:07:32;;;;;;;7.77;3.13;;;;;;;8.00;77.69;100900.50;5125514;27;20247;-62
2022/12/06 00:10:00;;;;;;;5.20;2.97;;;;;;;8.13;76.84;100898.53;5124060;27;20196;-62
2022/12/06 00:12:28;;;;;;;6.60;3.80;;;;;;;8.13;77.04;100901.19;5124897;27;20206;-62
2022/12/06 00:14:56;;;;;;;7.23;4.00;;;;;;;8.13;77.10;100903.81;5124445;27;20608;-63
2022/12/06 00:17:25;;;;;;;7.40;4.27;;;;;;;8.08;77.26;100903.38;5120533;27;20213;-62
2022/12/06 00:19:52;;;;;;;5.23;2.80;;;;;;;8.10;77.07;100904.06;5120061;27;20901;-62
2022/12/06 00:22:20;;;;;;;5.03;3.27;;;;;;;8.12;77.14;100896.84;5124792;27;20220;-62
2022/12/06 00:24:48;;;;;;;5.23;3.13;;;;;;;8.11;76.98;100903.09;5122209;27;20218;-62
2022/12/06 00:27:16;;;;;;;4.47;2.67;;;;;;;8.08;77.18;100892.78;5123870;27;20223;-62
2022/12/06 00:29:44;;;;;;;5.40;2.80;;;;;;;8.03;77.40;100887.84;5122092;27;20600;-63
2022/12/06 00:32:12;;;;;;;4.60;2.90;;;;;;;7.98;78.00;100891.84;5125115;27;20204;-62
2022/12/06 00:34:47;;;;;;;5.03;3.03;;;;;;;7.98;77.63;100891.84;5123768;27;20492;-62
2022/12/06 00:37:19;;;;;;;6.20;3.13;;;;;;;7.93;78.30;100889.53;5120720;27;20226;-62
2022/12/06 00:39:46;;;;;;;5.27;3.03;;;;;;;7.83;78.81;100884.16;5121836;27;20233;-62
2022/12/06 00:42:14;;;;;;;4.93;2.90;;;;;;;7.84;79.10;100880.53;5122732;27;20248;-62
2022/12/06 00:44:42;;;;;;;6.20;3.07;;;;;;;7.87;78.98;100875.03;5121184;27;20838;-62
2022/12/06 00:47:12;;;;;;;4.90;3.03;;;;;;;7.91;78.73;100870.38;5124973;27;20706;-62
2022/12/06 00:49:40;;;;;;;5.17;3.03;;;;;;;7.99;78.30;100873.25;5120201;27;20196;-63
2022/12/06 00:52:12;;;;;;;6.73;2.83;;;;;;;7.97;77.93;100872.50;5122424;27;20215;-62
2022/12/06 00:54:40;;;;;;;4.87;2.60;;;;;;;7.96;77.64;100867.34;5116918;27;20211;-63
2022/12/06 00:57:09;;;;;;;4.30;2.50;;;;;;;7.97;77.66;100869.88;5122712;27;20223;-62
2022/12/06 00:59:36;;;;;;;6.93;3.00;;;;;;;8.03;77.32;100874.66;5119975;27;20824;-63
2022/12/06 01:02:06;;;;;;;4.37;2.67;;;;;;;8.10;76.48;100869.72;5128581;27;20205;-62
2022/12/06 01:04:33;;;;;;;3.77;2.03;;;;;;;8.10;76.00;100875.00;5123220;27;20215;-63
2022/12/06 01:07:01;;;;;;;6.00;2.73;;;;;;;8.08;75.61;100871.66;5122934;27;20208;-62
2022/12/06 01:09:30;;;;;;;4.30;2.07;;;;;;;8.04;75.32;100875.50;5120257;27;20531;-63
2022/12/06 01:11:58;;;;;;;4.47;2.50;;;;;;;7.99;75.41;100875.03;5120761;27;20678;-63
2022/12/06 01:14:27;;;;;;;5.27;2.20;;;;;;;8.01;75.02;100881.00;5120721;27;20730;-61
2022/12/06 01:16:55;;;;;;;4.93;2.73;;;;;;;8.01;74.61;100876.56;5125183;27;20554;-61
2022/12/06 01:19:23;;;;;;;4.33;2.47;;;;;;;8.00;74.53;100879.38;5121569;27;20228;-61
2022/12/06 01:21:51;;;;;;;4.80;2.40;;;;;;;7.99;74.91;100877.69;5124991;27;20214;-61
2022/12/06 01:24:18;;;;;;;7.87;2.60;;;;;;;8.02;74.67;100872.13;5126666;27;20209;-61
2022/12/06 01:26:47;;;;;;;5.80;3.20;;;;;;;8.00;74.80;100876.72;5127873;27;20653;-61
2022/12/06 01:29:15;;;;;;;4.50;2.70;;;;;;;7.98;74.77;100876.00;5128346;27;20232;-61
2022/12/06 01:31:44;;;;;;;6.57;2.90;;;;;;;7.92;74.98;100883.41;5128007;27;20208;-61
2022/12/06 01:34:15;;;;;;;4.80;2.67;;;;;;;7.92;74.93;100888.69;5124902;27;20201;-61
2022/12/06 01:36:44;;;;;;;4.73;2.53;;;;;;;7.97;74.86;100884.88;5128131;27;20204;-62
2022/12/06 01:39:13;;;;;;;4.97;2.67;;;;;;;7.96;74.49;100885.84;5126560;27;20585;-62
2022/12/06 01:41:41;;;;;;;6.53;2.70;;;;;;;8.00;74.08;100884.66;5117576;27;20211;-61
2022/12/06 01:44:42;;;;;;;5.27;2.60;;;;;;;7.94;73.71;100888.59;5126635;27;20211;-61
2022/12/06 01:47:13;;;;;;;4.23;2.60;;;;;;;7.96;73.78;100884.03;5125859;27;20212;-60
2022/12/06 01:49:46;;;;;;;4.83;2.20;;;;;;;8.02;73.55;100887.97;5114740;27;20196;-61
2022/12/06 01:52:15;;;;;;;6.37;2.90;;;;;;;8.00;73.76;100884.66;5119912;27;20203;-62
2022/12/06 01:54:42;;;;;;;5.07;2.70;;;;;;;7.92;74.23;100879.94;5118351;27;20213;-61
2022/12/06 01:57:13;;;;;;;5.53;2.40;;;;;;;7.96;74.30;100873.47;5120261;27;20198;-62
2022/12/06 01:59:43;;;;;;;5.57;2.80;;;;;;;7.97;74.35;100884.88;5117240;27;20255;-62
2022/12/06 02:02:12;;;;;;;5.90;3.20;;;;;;;8.00;74.21;100879.38;5117273;27;20821;-62
2022/12/06 02:04:40;;;;;;;4.67;2.50;;;;;;;7.91;74.37;100887.06;5120746;27;20239;-61
2022/12/06 02:07:08;;;;;;;6.80;2.70;;;;;;;7.86;74.82;100877.78;5122301;27;20216;-61
2022/12/06 02:09:37;;;;;;;5.23;2.60;;;;;;;7.91;74.38;100871.22;5121602;27;20204;-61
2022/12/06 02:12:11;;;;;;;4.00;2.63;;;;;;;7.91;73.26;100876.50;5115379;27;20726;-62
2022/12/06 02:14:41;;;;;;;3.67;1.93;;;;;;;7.92;72.49;100867.56;5123261;27;20259;-61
2022/12/06 02:17:31;;;;;;;4.67;1.80;;;;;;;7.89;72.69;100869.63;5118465;27;20230;-62
2022/12/06 02:20:07;;;;;;;3.50;2.03;;;;;;;7.86;72.83;100867.22;5118916;27;20803;-62
2022/12/06 02:22:52;;;;;;;3.60;1.60;;;;;;;7.79;73.01;100856.31;5121624;27;20592;-61
2022/12/06 02:25:41;;;;;;;3.20;1.73;;;;;;;7.75;73.12;100854.88;5117045;27;20220;-62
2022/12/06 02:28:33;;;;;;;3.50;2.10;;;;;;;7.73;73.37;100856.81;5116631;27;20899;-63
2022/12/06 02:31:10;;;;;;;4.47;2.00;;;;;;;7.74;74.02;100858.47;5118784;27;20215;-62
2022/12/06 02:33:44;;;;;;;3.37;2.10;;;;;;;7.83;74.13;100857.75;5122145;27;20851;-62
2022/12/06 02:36:21;;;;;;;3.40;2.10;;;;;;;7.79;74.59;100861.59;5120120;27;20200;-62
2022/12/06 02:38:51;;;;;;;4.93;2.57;;;;;;;7.77;74.94;100860.03;5118781;27;20208;-62
2022/12/06 02:41:26;;;;;;;5.87;2.47;;;;;;;7.83;75.19;100855.09;5117955;27;20697;-63
2022/12/06 02:43:58;;;;;;;5.33;2.30;;;;;;;7.88;74.84;100852.97;5120576;27;20215;-63
2022/12/06 02:46:31;;;;;;;6.43;2.50;;;;;;;7.86;74.54;100854.03;5122103;27;20234;-62
2022/12/06 02:49:02;;;;;;;4.43;2.50;;;;;;;7.80;75.00;100852.72;5118694;27;20210;-62
2022/12/06 02:51:33;;;;;;;5.13;2.57;;;;;;;7.80;75.07;100852.72;5117446;27;20203;-63
2022/12/06 02:54:02;;;;;;;4.07;2.33;;;;;;;7.74;75.26;100847.09;5117308;27;20207;-63
2022/12/06 02:56:32;;;;;;;4.47;2.60;;;;;;;7.65;75.59;100851.28;5119917;27;20216;-63
2022/12/06 02:59:00;;;;;;;4.70;2.60;;;;;;;7.61;75.95;100851.66;5120697;27;20227;-62
2022/12/06 03:01:33;;;;;;;4.40;2.27;;;;;;;7.63;75.53;100845.28;5122444;27;20231;-63
2022/12/06 03:04:12;;;;;;;7.13;2.83;;;;;;;7.68;75.35;100843.13;5119446;28;20227;-62
2022/12/06 03:06:54;;;;;;;5.50;2.97;;;;;;;7.68;75.10;100848.41;5121679;28;20679;-62
2022/12/06 03:09:36;;;;;;;5.57;2.80;;;;;;;7.63;75.51;100840.00;5125340;27;20224;-62
2022/12/06 03:12:11;;;;;;;5.63;2.70;;;;;;;7.61;75.23;100841.94;5117847;28;20240;-62
2022/12/06 03:14:45;;;;;;;4.50;1.90;;;;;;;7.57;75.38;100840.47;5113831;28;20233;-62
2022/12/06 03:17:22;;;;;;;5.23;2.27;;;;;;;7.51;75.89;100841.81;5119921;28;20212;-62
2022/12/06 03:19:57;;;;;;;4.77;2.83;;;;;;;7.51;75.83;100848.88;5124909;28;20202;-62
2022/12/06 03:22:29;;;;;;;3.87;1.90;;;;;;;7.48;76.11;100846.47;5122675;27;20656;-62
2022/12/06 03:25:07;;;;;;;4.20;2.37;;;;;;;7.56;76.11;100849.38;5121177;27;20215;-62
2022/12/06 03:27:36;;;;;;;4.53;2.50;;;;;;;7.71;75.57;100848.16;5121901;27;20297;-62
2022/12/06 03:30:11;;;;;;;4.40;2.10;;;;;;;7.82;75.01;100842.03;5123522;27;20199;-61
2022/12/06 03:32:46;;;;;;;4.13;2.10;;;;;;;7.76;74.89;100840.72;5122655;27;20566;-62
2022/12/06 03:35:19;;;;;;;5.50;1.93;;;;;;;7.62;75.03;100840.97;5122743;27;20206;-61
2022/12/06 03:37:52;;;;;;;5.10;2.33;;;;;;;7.64;75.13;100841.69;5118124;28;20686;-61
2022/12/06 03:40:25;;;;;;;3.40;2.07;;;;;;;7.68;74.98;100837.84;5120780;27;20772;-61
2022/12/06 03:42:53;;;;;;;4.07;2.53;;;;;;;7.61;74.72;100839.28;5119334;27;20196;-61
2022/12/06 03:45:25;;;;;;;5.00;2.50;;;;;;;7.60;75.10;100834.97;5120783;27;20220;-62
2022/12/06 03:48:02;;;;;;;4.17;2.30;;;;;;;7.60;75.01;100836.75;5116522;27;20764;-62
2022/12/06 03:50:33;;;;;;;5.27;2.20;;;;;;;7.56;74.91;100831.72;5117348;28;20212;-62
2022/12/06 03:53:02;;;;;;;5.07;2.77;;;;;;;7.48;75.25;100834.13;5114720;28;20675;-62
2022/12/06 03:55:30;;;;;;;5.20;2.50;;;;;;;7.38;75.31;100824.41;5115395;28;20661;-62
2022/12/06 03:57:57;;;;;;;4.67;2.03;;;;;;;7.38;75.61;100824.41;5119410;28;20214;-62
2022/12/06 04:00:25;;;;;;;5.00;2.47;;;;;;;7.36;75.92;100826.31;5118497;28;20240;-62
2022/12/06 04:02:54;;;;;;;3.47;1.90;;;;;;;7.39;75.82;100819.00;5118300;28;20194;-62
2022/12/06 04:05:22;;;;;;;4.73;2.17;;;;;;;7.54;75.45;100819.63;5116434;27;20210;-61
2022/12/06 04:07:49;;;;;;;4.13;2.43;;;;;;;7.57;74.82;100825.47;5123590;27;20203;-62
2022/12/06 04:10:17;;;;;;;4.53;2.13;;;;;;;7.54;74.69;100825.75;5121506;27;20234;-61
2022/12/06 04:15:34;;;;;;;4.50;2.33;;;;;;;7.43;74.75;100827.53;5109860;27;20221;-62
2022/12/06 04:18:12;;;;;;;6.53;2.93;;;;;;;7.41;74.84;100819.72;5123479;27;20238;-61
2022/12/06 04:23:33;;;;;;;4.60;2.43;;;;;;;7.48;74.64;100818.28;5116454;27;20756;-62
2022/12/06 04:26:04;;;;;;;4.60;2.27;;;;;;;7.60;74.07;100815.66;5122161;27;20340;-61
2022/12/06 04:39:37;;;;;;;5.40;2.37;;;;;;;7.47;74.20;100807.88;5115164;27;20213;-61
2022/12/06 04:44:51;;;;;;;4.97;2.93;;;;;;;7.47;74.63;100810.50;5121686;27;20209;-62
2022/12/06 04:47:19;;;;;;;4.80;2.43;;;;;;;7.40;75.55;100806.66;5121120;27;20217;-62
2022/12/06 04:49:48;;;;;;;4.67;2.40;;;;;;;7.39;75.48;100802.31;5122631;27;20205;-62
2022/12/06 04:52:16;;;;;;;4.23;2.23;;;;;;;7.49;75.29;100800.66;5114654;27;20840;-63
2022/12/06 04:54:44;;;;;;;4.63;2.63;;;;;;;7.59;75.00;100801.59;5121127;27;20203;-62
2022/12/06 04:57:13;;;;;;;4.57;2.50;;;;;;;7.63;74.50;100802.22;5124990;27;20601;-62
2022/12/06 04:59:42;;;;;;;4.33;2.20;;;;;;;7.69;74.43;100797.28;5124544;27;20213;-62
2022/12/06 05:02:13;;;;;;;4.50;2.20;;;;;;;7.75;73.93;100796.78;5123837;27;20724;-63
2022/12/06 05:04:40;;;;;;;4.47;2.43;;;;;;;7.63;74.14;100795.13;5123909;27;20214;-62
2022/12/06 05:07:13;;;;;;;4.83;2.60;;;;;;;7.60;74.25;100791.91;5121793;27;20251;-62
2022/12/06 05:09:40;;;;;;;4.27;2.17;;;;;;;7.54;74.35;100791.44;5114352;27;20232;-63
2022/12/06 05:12:08;;;;;;;4.57;2.60;;;;;;;7.60;74.50;100802.44;5112579;27;20230;-63
2022/12/06 05:14:36;;;;;;;4.80;2.60;;;;;;;7.50;75.04;100794.41;5119202;27;20211;-62
2022/12/06 05:17:04;;;;;;;9.57;2.30;;;;;;;7.41;75.53;100798.63;5108843;27;20208;-62
2022/12/06 05:19:31;;;;;;;3.77;2.10;;;;;;;7.36;75.61;100792.03;5125206;27;20234;-62
2022/12/06 05:21:59;;;;;;;5.03;2.33;;;;;;;7.30;76.28;100798.59;5109213;27;20760;-61
2022/12/06 05:24:29;;;;;;;6.10;2.40;;;;;;;7.26;76.21;100794.53;5111187;27;20667;-62
2022/12/06 05:26:56;;;;;;;5.27;2.67;;;;;;;7.25;76.85;100789.38;5128546;27;20218;-62
2022/12/06 05:29:24;;;;;;;4.67;2.63;;;;;;;7.23;76.71;100796.56;5125412;27;20234;-63
2022/12/06 05:31:52;;;;;;;5.23;2.83;;;;;;;7.21;76.79;100798.50;5126426;27;20581;-62
2022/12/06 05:34:19;;;;;;;4.93;2.70;;;;;;;7.21;76.78;100798.50;5126072;27;20306;-62
2022/12/06 05:36:47;;;;;;;4.40;2.50;;;;;;;7.31;76.13;100796.81;5125626;27;20268;-62
2022/12/06 05:39:16;;;;;;;6.00;2.30;;;;;;;7.34;75.93;100796.56;5126049;27;20215;-62
2022/12/06 05:41:45;;;;;;;4.33;2.47;;;;;;;7.34;75.86;100801.84;5127810;27;20220;-62
2022/12/06 05:44:13;;;;;;;5.27;2.90;;;;;;;7.35;75.63;100800.91;5129918;27;20217;-62
2022/12/06 05:46:41;;;;;;;4.60;2.50;;;;;;;7.34;75.60;100801.84;5122522;27;20238;-63
2022/12/06 05:49:08;;;;;;;4.23;2.50;;;;;;;7.33;75.68;100805.44;5122566;27;20547;-61
2022/12/06 05:51:36;;;;;;;5.73;3.10;;;;;;;7.33;75.90;100795.75;5121839;27;20230;-62
2022/12/06 05:54:05;;;;;;;5.70;2.70;;;;;;;7.37;75.86;100807.75;5123113;27;20845;-62
2022/12/06 05:56:33;;;;;;;5.23;3.03;;;;;;;7.36;75.77;100813.13;5117227;27;20725;-61
2022/12/06 05:59:03;;;;;;;4.00;2.27;;;;;;;7.32;75.73;100812.53;5119498;27;20211;-62
2022/12/06 06:01:31;;;;;;;5.23;2.40;;;;;;;7.32;75.92;100816.97;5118369;27;20237;-62
2022/12/06 06:03:58;;;;;;;4.70;2.50;;;;;;;7.30;75.97;100813.63;5116900;27;20207;-63
2022/12/06 06:06:26;;;;;;;5.70;2.90;;;;;;;7.26;76.46;100810.38;5117752;27;20240;-63
2022/12/06 06:08:54;;;;;;;5.23;2.70;;;;;;;7.33;76.37;100816.00;5119340;27;20207;-63
2022/12/06 06:11:22;;;;;;;6.10;2.83;;;;;;;7.30;76.47;100821.53;5120025;27;20585;-62
2022/12/06 06:13:49;;;;;;;4.93;2.80;;;;;;;7.34;76.65;100822.97;5117800;27;20203;-62
2022/12/06 06:16:18;;;;;;;5.70;3.00;;;;;;;7.49;75.85;100829.69;5116978;27;20211;-63
2022/12/06 06:18:46;;;;;;;7.93;3.20;;;;;;;7.52;75.38;100824.16;5121564;27;20216;-63
2022/12/06 06:21:14;;;;;;;5.53;3.10;;;;;;;7.49;75.42;100827.88;5120257;27;20207;-62
2022/12/06 06:23:42;;;;;;;5.53;2.93;;;;;;;7.47;75.32;100823.69;5122624;27;20200;-62
2022/12/06 06:26:11;;;;;;;7.47;3.20;;;;;;;7.45;75.32;100829.09;5118627;27;20248;-62
2022/12/06 06:28:39;;;;;;;5.60;2.93;;;;;;;7.40;75.59;100827.75;5120537;27;20691;-62
2022/12/06 06:31:08;;;;;;;4.37;2.67;;;;;;;7.38;75.98;100829.69;5117719;27;20966;-60
2022/12/06 06:33:37;;;;;;;4.83;3.10;;;;;;;7.50;75.71;100826.09;5121113;27;20637;-61
2022/12/06 06:36:08;;;;;;;4.67;2.70;;;;;;;7.62;75.09;100822.50;5117816;27;20211;-61
2022/12/06 06:38:35;;;;;;;5.37;3.20;;;;;;;7.61;75.05;100826.09;5120473;27;20213;-61
2022/12/06 06:41:04;;;;;;;5.20;3.10;;;;;;;7.66;75.10;100818.63;5118100;27;20207;-62
2022/12/06 06:43:32;;;;;;;5.37;2.90;;;;;;;7.75;74.55;100817.91;5119088;27;21679;-62
2022/12/06 06:46:01;;;;;;;5.90;3.27;;;;;;;7.68;74.62;100824.63;5120461;27;20201;-62
2022/12/06 06:48:30;;;;;;;6.57;3.77;;;;;;;7.62;74.58;100821.66;5118578;27;20224;-61
2022/12/06 06:51:03;;;;;;;5.43;3.33;;;;;;;7.48;75.00;100820.06;5119106;27;20288;-62
2022/12/06 06:53:31;;;;;;;6.00;3.37;;;;;;;7.42;75.47;100820.56;5119651;28;21287;-62
2022/12/06 06:55:59;;;;;;;7.33;3.23;;;;;;;7.39;76.09;100820.78;5114168;28;20210;-62
2022/12/06 06:58:27;;;;;;;7.60;3.80;;;;;;;7.49;75.91;100821.75;5118166;28;20201;-62
2022/12/06 07:00:56;;;;;;;6.33;3.47;;;;;;;7.47;75.95;100828.97;5121469;27;20203;-61
2022/12/06 07:03:25;;;;;;;6.07;3.43;;;;;;;7.45;75.99;100825.63;5121378;28;21128;-62
2022/12/06 07:05:54;;;;;;;5.63;3.53;;;;;;;7.43;75.79;100827.53;5118441;27;20210;-63
2022/12/06 07:08:24;;;;;;;5.83;3.60;;;;;;;7.35;76.60;100817.56;5117906;27;20215;-64
2022/12/06 07:10:53;;;;;;;5.80;3.67;;;;;;;7.35;76.92;100820.22;5120557;27;20221;-63
2022/12/06 07:13:23;;;;;;;6.37;3.80;;;;;;;7.28;77.35;100819.00;5114178;28;20308;-63
2022/12/06 07:15:52;;;;;;;8.50;4.07;;;;;;;7.25;77.87;100821.03;5117989;28;20207;-62
2022/12/06 07:18:20;;;;;;;5.93;3.57;;;;;;;7.23;77.67;100822.94;5122470;28;20650;-64
2022/12/06 07:20:49;;;;;;;6.47;3.60;;;;;;;7.27;77.22;100821.75;5124811;28;20228;-62
2022/12/06 07:23:16;;;;;;;7.37;4.30;;;;;;;7.25;76.80;100821.88;5123929;28;20227;-61
2022/12/06 07:25:48;;;;;;;6.03;3.70;;;;;;;7.26;76.89;100822.72;5127938;28;20665;-62
2022/12/06 07:28:16;;;;;;;7.40;3.90;;;;;;;7.27;76.72;100833.16;5117225;28;20270;-61
2022/12/06 07:30:43;;;;;;;6.00;3.50;;;;;;;7.27;76.44;100829.69;5100813;28;20213;-62
2022/12/06 07:33:11;;;;;;;6.90;4.00;;;;;;;7.23;76.46;100831.69;5108142;28;20201;-63
2022/12/06 07:35:39;;;;;;;6.63;3.77;;;;;;;7.21;76.45;100831.00;5108735;28;20942;-64
2022/12/06 07:38:27;;;;;;;5.00;2.73;;;;;;;7.27;76.26;100827.88;5103262;28;20216;-62
2022/12/06 07:41:02;;;;;;;6.20;3.20;;;;;;;7.28;75.89;100832.19;5109555;28;20633;-62
2022/12/06 07:46:17;;;;;;;6.90;3.47;;;;;;;7.43;75.33;100835.44;5111472;28;20195;-62
2022/12/06 07:48:44;;;;;;;6.50;3.53;;;;;;;7.37;75.21;100834.13;5105547;28;20213;-61
2022/12/06 07:51:12;;;;;;;5.90;3.07;;;;;;;7.36;75.48;100831.59;5116233;27;20599;-62
2022/12/06 07:53:40;;;;;;;6.50;3.10;;;;;;;7.36;75.20;100831.59;5100722;27;20300;-64
2022/12/06 07:56:09;;;;;;;5.77;3.57;;;;;;;7.34;74.74;100831.72;5107229;28;20257;-62
2022/12/06 07:58:37;;;;;;;6.23;3.30;;;;;;;7.28;74.50;100832.19;5109077;28;20203;-62
2022/12/06 08:01:05;;;;;;;6.53;3.47;;;;;;;7.28;74.64;100834.00;5111575;27;20514;-62
2022/12/06 08:03:33;;;;;;;9.07;3.70;;;;;;;7.29;74.00;100831.25;5110262;27;20228;-62
2022/12/06 08:06:00;;;;;;;7.63;4.00;;;;;;;7.26;73.91;100830.63;5111919;27;20227;-63
2022/12/06 08:08:28;;;;;;;7.40;3.27;;;;;;;7.28;73.55;100837.47;5106555;28;20219;-62
2022/12/06 08:10:58;;;;;;;6.72;3.42;;;;;;;7.31;73.58;100839.00;5095813;28;20455;-62
2022/12/06 08:13:27;;;;;;;5.43;3.07;;;;;;;7.40;73.50;100835.66;5095563;28;20203;-64
2022/12/06 08:15:55;;;;;;;6.10;3.57;;;;;;;7.36;73.21;100834.25;5108285;27;20224;-65
2022/12/06 08:18:24;;;;;;;5.73;3.53;;;;;;;7.40;73.37;100833.03;5100807;27;20216;-63
2022/12/06 08:20:52;;;;;;;8.10;2.50;;;;;;;7.44;73.49;100832.69;5098057;28;20213;-62
2022/12/06 08:23:20;;;;;;;5.13;2.70;;;;;;;7.52;73.16;100834.72;5102421;28;20270;-64
2022/12/06 08:25:58;;;;;;;5.53;3.53;;;;;;;7.57;73.16;100840.47;5105689;27;20219;-63
2022/12/06 08:28:28;;;;;;;4.13;2.70;;;;;;;7.58;73.01;100839.50;5112795;27;20334;-64
2022/12/06 08:30:57;;;;;;;6.00;3.43;;;;;;;7.50;72.67;100826.91;5124804;27;20212;-63
2022/12/06 08:33:32;;;;;;;5.40;3.10;;;;;;;7.49;73.19;100822.59;5123253;27;20204;-65
2022/12/06 08:36:00;;;;;;;5.10;2.93;;;;;;;7.59;72.89;100833.28;5121630;27;20224;-63
2022/12/06 08:38:28;;;;;;;5.13;2.67;;;;;;;7.73;72.28;100833.06;5122720;27;20204;-65
2022/12/06 08:40:56;;;;;;;4.20;2.70;;;;;;;7.75;71.98;100833.75;5124036;27;20227;-63
2022/12/06 08:43:27;;;;;;;5.47;3.30;;;;;;;7.73;72.27;100834.84;5121044;27;20247;-63
2022/12/06 08:45:55;;;;;;;5.00;2.30;;;;;;;7.65;72.31;100838.06;5120648;27;20303;-62
2022/12/06 08:48:23;;;;;;;6.13;3.40;;;;;;;7.62;73.22;100827.78;5125582;27;20708;-63
2022/12/06 08:50:50;;;;;;;5.17;3.10;;;;;;;7.64;73.02;100832.94;5127190;27;20217;-63
2022/12/06 08:53:18;;;;;;;5.33;3.00;;;;;;;7.69;73.00;100830.75;5127638;27;20204;-64
2022/12/06 08:55:54;;;;;;;4.73;2.73;;;;;;;7.73;72.80;100829.56;5130118;27;20225;-64
2022/12/06 08:58:30;;;;;;;5.17;2.53;;;;;;;7.75;72.97;100827.63;5128471;27;20213;-65
2022/12/06 09:00:58;;;;;;;3.87;2.33;;;;;;;7.79;72.99;100829.06;5119189;27;20205;-65
2022/12/06 09:03:26;;;;;;;6.10;3.10;;;;;;;7.88;71.96;100834.47;5128650;27;20231;-64
2022/12/06 09:05:56;;;;;;;4.57;2.43;;;;;;;7.94;71.53;100833.13;5128569;27;20587;-64
2022/12/06 09:08:25;;;;;;;5.40;2.60;;;;;;;7.90;71.65;100842.28;5126016;27;20205;-64
2022/12/06 09:10:53;;;;;;;5.07;2.77;;;;;;;7.93;71.60;100842.00;5128379;27;20223;-64
2022/12/06 09:13:22;;;;;;;5.53;2.90;;;;;;;7.94;70.84;100833.97;5124290;27;20208;-64
2022/12/06 09:15:51;;;;;;;4.23;2.50;;;;;;;7.80;71.76;100826.31;5127747;27;20203;-64
2022/12/06 09:18:21;;;;;;;4.33;2.63;;;;;;;7.87;71.65;100829.31;5129140;27;20223;-64
2022/12/06 09:20:49;;;;;;;4.33;2.57;;;;;;;7.84;70.96;100837.47;5132577;27;20212;-63
2022/12/06 09:23:17;;;;;;;3.83;2.40;;;;;;;7.87;71.13;100840.72;5118437;27;20317;-63
2022/12/06 09:25:44;;;;;;;5.03;2.80;;;;;;;7.93;71.01;100837.56;5129053;27;20627;-64
2022/12/06 09:28:13;;;;;;;4.53;2.67;;;;;;;7.92;71.22;100841.16;5126827;27;20231;-64
2022/12/06 09:30:41;;;;;;;5.27;2.80;;;;;;;7.92;71.06;100835.06;5124894;27;20668;-64
2022/12/06 09:33:10;;;;;;;3.93;2.40;;;;;;;7.95;71.10;100848.03;5128875;27;20211;-63
2022/12/06 09:35:38;;;;;;;4.70;2.97;;;;;;;8.00;70.70;100847.66;5131457;27;20211;-63
2022/12/06 09:38:06;;;;;;;5.23;3.07;;;;;;;8.04;70.57;100843.81;5131201;27;20210;-63
2022/12/06 09:40:41;;;;;;;4.13;2.70;;;;;;;8.09;70.45;100847.75;5127771;27;20205;-64
2022/12/06 09:43:23;;;;;;;4.17;2.77;;;;;;;8.10;70.36;100854.72;5129168;27;20217;-63
2022/12/06 09:46:06;;;;;;;4.47;2.67;;;;;;;8.18;70.11;100856.75;5124877;27;20707;-64
2022/12/06 09:48:55;;;;;;;4.13;2.80;;;;;;;8.18;69.57;100852.28;5127317;27;20669;-65
2022/12/06 09:51:48;;;;;;;4.83;2.43;;;;;;;8.19;69.88;100853.97;5128334;27;20212;-64
2022/12/06 09:54:32;;;;;;;3.60;2.30;;;;;;;8.24;69.44;100853.63;5124230;27;20212;-64
2022/12/06 09:57:07;;;;;;;4.87;2.90;;;;;;;8.29;69.73;100854.91;5123403;27;20207;-64
2022/12/06 09:59:44;;;;;;;4.40;2.40;;;;;;;8.29;69.39;100846.16;5128149;27;20206;-64
2022/12/06 10:02:37;;;;;;;6.00;2.93;;;;;;;8.38;69.23;100857.81;5122372;27;21159;-64
2022/12/06 10:05:28;;;;;;;4.53;2.60;;;;;;;8.39;69.17;100851.56;5122655;27;20221;-65
2022/12/06 10:08:07;;;;;;;5.10;2.47;;;;;;;8.44;68.87;100858.16;5124876;27;20654;-65
2022/12/06 10:10:49;;;;;;;4.30;2.73;;;;;;;8.49;68.54;100848.03;5126404;27;20593;-66
2022/12/06 10:13:24;;;;;;;4.30;2.60;;;;;;;8.58;67.81;100849.94;5126322;27;20925;-64
2022/12/06 10:16:03;;;;;;;5.23;2.77;;;;;;;8.60;67.83;100848.00;5126800;27;20204;-64
2022/12/06 10:18:49;;;;;;;7.23;2.70;;;;;;;8.57;67.82;100842.97;5119216;27;20634;-64
2022/12/06 10:21:28;;;;;;;4.80;2.70;;;;;;;8.57;68.41;100840.31;5122697;27;20611;-64
2022/12/06 10:24:06;;;;;;;6.53;2.97;;;;;;;8.61;68.55;100841.75;5123595;27;20272;-63
2022/12/06 10:26:44;;;;;;;4.87;2.70;;;;;;;8.66;68.41;100847.50;5119839;27;20303;-65
2022/12/06 10:29:19;;;;;;;5.40;3.20;;;;;;;8.64;68.74;100841.50;5122493;27;20282;-64
2022/12/06 10:31:58;;;;;;;3.97;2.50;;;;;;;8.60;68.32;100837.44;5121227;27;20634;-63
2022/12/06 10:34:47;;;;;;;4.97;2.73;;;;;;;8.58;68.35;100843.81;5123419;27;20296;-64
2022/12/06 10:37:31;;;;;;;4.67;2.53;;;;;;;8.62;68.00;100842.56;5122961;27;20429;-64
2022/12/06 10:40:06;;;;;;;3.67;2.43;;;;;;;8.64;67.86;100843.28;5120701;27;20208;-64
2022/12/06 10:42:40;;;;;;;4.37;2.30;;;;;;;8.65;67.51;100844.97;5126761;27;20226;-65
2022/12/06 10:48:14;;;;;;;5.33;2.47;;;;;;;8.58;67.48;100844.66;5126202;27;20270;-64
2022/12/06 10:50:46;;;;;;;5.13;2.67;;;;;;;8.57;67.27;100840.31;5124351;27;20223;-66
2022/12/06 10:53:20;;;;;;;4.80;2.40;;;;;;;8.59;67.00;100848.97;5126149;28;20219;-63
2022/12/06 10:55:51;;;;;;;3.87;2.20;;;;;;;8.60;66.82;100841.88;5125174;28;20896;-64
2022/12/06 10:58:30;;;;;;;5.83;2.70;;;;;;;8.61;66.96;100843.56;5124091;28;20212;-65
2022/12/06 11:01:00;;;;;;;3.50;2.20;;;;;;;8.62;66.96;100846.06;5122786;27;20215;-64
2022/12/06 11:03:33;;;;;;;6.33;2.50;;;;;;;8.62;67.07;100846.06;5120378;28;20881;-63
2022/12/06 11:06:09;;;;;;;5.70;2.90;;;;;;;8.62;67.38;100840.78;5120405;27;20211;-64
2022/12/06 11:08:43;;;;;;;7.53;3.30;;;;;;;8.65;67.56;100840.53;5122281;28;20198;-64
2022/12/06 11:11:15;;;;;;;4.23;2.53;;;;;;;8.72;67.49;100840.00;5123968;27;20228;-64
2022/12/06 11:13:47;;;;;;;7.70;2.40;;;;;;;8.67;67.68;100845.69;5122186;27;20222;-64
2022/12/06 11:16:20;;;;;;;5.80;2.57;;;;;;;8.70;67.94;100849.91;5128354;27;20209;-65
2022/12/06 11:18:49;;;;;;;4.20;2.50;;;;;;;8.73;67.63;100841.69;5132425;27;20207;-65
2022/12/06 11:21:27;;;;;;;5.27;2.90;;;;;;;8.79;67.17;100830.63;5131624;27;20268;-64
2022/12/06 11:24:02;;;;;;;10.70;3.40;;;;;;;8.84;66.77;100833.72;5116375;27;20224;-63
2022/12/06 11:26:36;;;;;;;7.07;2.97;;;;;;;8.80;67.32;100832.28;5126984;27;20310;-64
2022/12/06 11:29:09;;;;;;;4.83;2.60;;;;;;;8.77;66.70;100835.19;5128277;27;20252;-63
2022/12/06 11:31:43;;;;;;;4.00;2.30;;;;;;;8.78;66.85;100829.78;5132980;27;20236;-64
2022/12/06 11:34:16;;;;;;;4.07;2.27;;;;;;;8.80;66.64;100829.63;5128478;27;20296;-63
2022/12/06 11:36:47;;;;;;;4.23;2.80;;;;;;;8.80;66.51;100832.28;5131395;27;20204;-64
2022/12/06 11:39:16;;;;;;;4.77;3.03;;;;;;;8.79;66.57;100828.81;5128365;27;20200;-63
2022/12/06 11:41:49;;;;;;;7.37;2.93;;;;;;;8.80;66.58;100827.84;5133089;27;20201;-64
2022/12/06 11:44:20;;;;;;;4.67;2.83;;;;;;;8.78;67.38;100828.94;5126870;27;20689;-63
2022/12/06 11:46:57;;;;;;;3.97;2.40;;;;;;;8.75;67.10;100829.19;5125689;27;20212;-63
2022/12/06 11:49:28;;;;;;;7.60;2.43;;;;;;;8.75;66.85;100826.53;5126068;27;20303;-65
2022/12/06 11:51:59;;;;;;;7.73;2.40;;;;;;;8.76;66.46;100823.78;5127017;27;20222;-63
2022/12/06 11:54:33;;;;;;;3.77;1.90;;;;;;;8.80;66.37;100824.34;5125140;27;20552;-65
2022/12/06 11:57:12;;;;;;;4.17;2.17;;;;;;;8.80;66.95;100827.00;5126705;27;20288;-63
2022/12/06 12:00:08;;;;;;;4.67;2.33;;;;;;;8.90;66.78;100818.16;5126448;27;20236;-64
2022/12/06 12:02:36;;;;;;;6.10;2.70;;;;;;;8.96;66.52;100811.53;5129008;27;20559;-62
2022/12/06 12:05:10;;;;;;;9.17;2.57;;;;;;;8.93;66.63;100803.84;5132238;27;20244;-63
2022/12/06 12:07:40;;;;;;;4.07;2.50;;;;;;;8.99;66.27;100805.97;5130754;27;20616;-64
2022/12/06 12:10:33;;;;;;;4.27;2.00;;;;;;;9.06;65.74;100812.41;5133279;27;20215;-63
2022/12/06 12:16:13;;;;;;;3.83;2.43;;;;;;;9.14;65.06;100806.50;5128796;27;20213;-63
2022/12/06 12:18:50;;;;;;;3.60;2.00;;;;;;;9.08;65.60;100794.59;5126826;27;20194;-64
2022/12/06 12:21:29;;;;;;;4.13;2.67;;;;;;;9.14;65.75;100799.41;5126024;27;20238;-64